createdAt,value
2023-05-10T00:00:26.651Z,63.13
2023-05-10T00:05:29.662Z,63.05
2023-05-10T00:10:32.178Z,63.45
2023-05-10T00:15:36.040Z,63.48
2023-05-10T00:20:38.410Z,63.79
2023-05-10T00:25:40.778Z,63.87
2023-05-10T00:30:43.194Z,64.09
2023-05-10T00:35:45.515Z,64.86
2023-05-10T00:40:47.933Z,64.64
2023-05-10T00:45:50.912Z,64.49
2023-05-10T00:50:53.519Z,64.42
2023-05-10T00:55:56.126Z,64.22
2023-05-10T01:00:59.217Z,64.07
2023-05-10T01:06:01.744Z,64.04
2023-05-10T01:11:04.216Z,63.90
2023-05-10T01:16:08.168Z,64.08
2023-05-10T01:21:16.658Z,63.94
2023-05-10T01:26:40.692Z,64.20
2023-05-10T01:32:01.195Z,64.10
2023-05-10T01:37:09.406Z,63.91
2023-05-10T01:42:15.619Z,64.19
2023-05-10T01:47:38.694Z,63.80
2023-05-10T01:52:45.146Z,64.03
2023-05-10T01:57:52.084Z,63.40
2023-05-10T02:02:55.870Z,64.14
2023-05-10T02:08:00.645Z,63.95
2023-05-10T02:13:04.567Z,63.84
2023-05-10T02:18:07.903Z,63.57
2023-05-10T02:23:11.231Z,63.45
2023-05-10T02:28:14.776Z,63.26
2023-05-10T02:33:18.017Z,63.00
2023-05-10T02:38:23.171Z,63.08
2023-05-10T02:43:27.256Z,62.98
2023-05-10T02:48:30.325Z,63.26
2023-05-10T02:53:34.882Z,63.26
2023-05-10T02:58:37.186Z,63.65
2023-05-10T03:03:39.481Z,63.35
2023-05-10T03:08:41.730Z,63.53
2023-05-10T03:14:10.351Z,63.61
2023-05-10T03:19:26.290Z,63.18
2023-05-10T03:24:30.290Z,63.51
2023-05-10T03:29:33.654Z,63.54
2023-05-10T03:34:35.813Z,63.39
2023-05-10T03:39:38.536Z,63.32
2023-05-10T03:44:41.513Z,63.48
2023-05-10T03:49:44.516Z,63.81
2023-05-10T03:54:46.704Z,63.77
2023-05-10T03:59:49.005Z,63.87
2023-05-10T04:04:51.699Z,64.04
2023-05-10T04:09:53.909Z,63.84
2023-05-10T04:14:56.358Z,64.38
2023-05-10T04:19:58.782Z,64.31
2023-05-10T04:25:01.472Z,64.38
2023-05-10T04:30:03.913Z,64.21
2023-05-10T04:35:06.615Z,64.11
2023-05-10T04:40:09.571Z,63.64
2023-05-10T04:45:12.194Z,63.69
2023-05-10T04:50:14.560Z,63.88
2023-05-10T04:55:17.517Z,63.68
2023-05-10T05:00:20.299Z,63.56
2023-05-10T05:05:22.740Z,63.14
2023-05-10T05:10:25.032Z,63.39
2023-05-10T05:15:27.551Z,63.19
2023-05-10T05:20:29.818Z,63.29
2023-05-10T05:25:32.149Z,63.65
2023-05-10T05:30:34.513Z,63.18
2023-05-10T05:35:36.731Z,63.38
2023-05-10T05:40:39.040Z,63.16
2023-05-10T05:45:41.595Z,62.90
2023-05-10T05:50:43.941Z,63.00
2023-05-10T05:55:59.992Z,62.85
2023-05-10T06:01:02.655Z,62.58
2023-05-10T06:06:05.238Z,62.79
2023-05-10T06:11:07.645Z,62.88
2023-05-10T06:16:09.970Z,62.13
2023-05-10T06:21:12.352Z,62.06
2023-05-10T06:26:15.252Z,61.77
2023-05-10T06:31:17.671Z,61.68
2023-05-10T06:36:20.162Z,61.23
2023-05-10T06:41:24.542Z,60.67
2023-05-10T06:46:27.275Z,60.32
2023-05-10T06:51:29.583Z,60.21
2023-05-10T06:56:31.945Z,60.10
2023-05-10T07:01:34.254Z,59.72
2023-05-10T07:06:37.449Z,59.22
2023-05-10T07:11:39.707Z,58.73
2023-05-10T07:16:42.197Z,58.45
2023-05-10T07:21:44.754Z,58.38
2023-05-10T07:26:47.175Z,57.57
2023-05-10T07:31:49.485Z,56.74
2023-05-10T07:36:51.866Z,56.40
2023-05-10T07:41:54.656Z,56.37
2023-05-10T07:46:57.224Z,56.33
2023-05-10T07:51:59.569Z,56.20
2023-05-10T07:57:02.351Z,55.99
2023-05-10T08:02:04.873Z,55.70
2023-05-10T08:07:07.171Z,56.17
2023-05-10T08:12:09.455Z,56.23
2023-05-10T08:17:11.701Z,56.25
2023-05-10T08:22:13.928Z,55.87
2023-05-10T08:27:16.169Z,55.55
2023-05-10T08:32:19.269Z,58.15
2023-05-10T08:37:21.606Z,58.94
2023-05-10T08:42:28.484Z,59.99
2023-05-10T08:53:01.660Z,59.24
2023-05-10T08:58:05.059Z,60.75
2023-05-10T09:03:07.694Z,62.75
2023-05-10T09:08:10.361Z,61.46
2023-05-10T09:13:13.345Z,59.85
2023-05-10T09:18:15.702Z,58.64
2023-05-10T09:23:18.008Z,58.37
2023-05-10T09:28:20.195Z,57.32
2023-05-10T09:33:22.476Z,56.88
2023-05-10T09:38:25.038Z,56.46
2023-05-10T09:43:27.547Z,56.08
2023-05-10T09:48:30.085Z,56.16
2023-05-10T09:53:32.533Z,56.38
2023-05-10T09:58:39.543Z,56.07
2023-05-10T10:03:45.093Z,56.01
2023-05-10T10:08:47.805Z,55.77
2023-05-10T10:13:50.490Z,55.96
2023-05-10T10:18:52.894Z,55.86
2023-05-10T10:23:55.806Z,55.99
2023-05-10T10:29:35.299Z,55.91
2023-05-10T10:34:38.472Z,55.51
2023-05-10T10:39:41.358Z,55.65
2023-05-10T10:44:46.182Z,55.13
2023-05-10T10:50:02.092Z,54.99
2023-05-10T10:55:07.946Z,53.88
2023-05-10T11:00:32.732Z,53.63
2023-05-10T11:05:36.494Z,53.70
2023-05-10T11:10:39.330Z,54.06
2023-05-10T11:15:49.618Z,54.79
2023-05-10T11:20:57.139Z,54.87
2023-05-10T11:26:01.557Z,55.47
2023-05-10T11:31:04.347Z,55.50
2023-05-10T11:36:06.787Z,55.70
2023-05-10T11:41:13.575Z,56.00
2023-05-10T11:46:16.270Z,56.04
2023-05-10T11:51:22.997Z,56.13
2023-05-10T11:56:26.264Z,56.22
2023-05-10T12:01:29.533Z,56.50
2023-05-10T12:06:36.583Z,56.10
2023-05-10T12:11:44.039Z,56.09
2023-05-10T12:16:46.972Z,55.80
2023-05-10T12:21:49.768Z,56.23
2023-05-10T12:26:51.954Z,56.88
2023-05-10T12:32:01.330Z,57.37
2023-05-10T12:37:04.921Z,58.00
2023-05-10T12:42:07.752Z,58.57
2023-05-10T12:47:10.009Z,58.89
2023-05-10T12:52:12.876Z,59.49
2023-05-10T12:57:15.262Z,59.07
2023-05-10T13:02:19.584Z,59.36
2023-05-10T13:07:21.836Z,59.36
2023-05-10T13:12:24.005Z,59.64
2023-05-10T13:17:27.402Z,59.47
2023-05-10T13:22:39.623Z,59.90
2023-05-10T13:27:42.623Z,59.35
2023-05-10T13:32:44.940Z,59.28
2023-05-10T13:37:47.188Z,59.40
2023-05-10T13:42:49.361Z,59.09
2023-05-10T13:47:51.751Z,59.24
2023-05-10T13:52:54.057Z,59.54
2023-05-10T13:57:56.218Z,59.70
2023-05-10T14:02:58.451Z,60.09
2023-05-10T14:08:00.669Z,59.86
2023-05-10T14:13:04.551Z,60.06
2023-05-10T14:18:06.874Z,60.66
2023-05-10T14:23:11.719Z,61.23
2023-05-10T14:28:14.924Z,61.51
2023-05-10T14:33:18.217Z,61.49
2023-05-10T14:38:20.479Z,61.91
2023-05-10T14:43:22.761Z,62.31
2023-05-10T14:48:24.999Z,62.50
2023-05-10T14:53:27.337Z,62.52
2023-05-10T14:58:29.630Z,62.52
2023-05-10T15:03:32.163Z,62.73
2023-05-10T15:08:34.780Z,62.79
2023-05-10T15:13:37.145Z,63.04
2023-05-10T15:18:39.319Z,62.81
2023-05-10T15:23:42.374Z,62.71
2023-05-10T15:28:45.519Z,62.56
2023-05-10T15:33:47.851Z,62.71
2023-05-10T15:38:50.499Z,62.90
2023-05-10T15:43:52.731Z,62.86
2023-05-10T15:48:55.005Z,62.99
2023-05-10T15:54:06.567Z,62.62
2023-05-10T15:59:12.007Z,62.35
2023-05-10T16:04:14.394Z,62.48
2023-05-10T16:09:16.613Z,62.04
2023-05-10T16:14:19.001Z,62.43
2023-05-10T16:19:21.287Z,62.65
2023-05-10T16:24:23.629Z,62.67
2023-05-10T16:29:26.634Z,62.64
2023-05-10T16:34:28.921Z,62.57
2023-05-10T16:39:31.194Z,62.85
2023-05-10T16:44:33.575Z,62.71
2023-05-10T16:49:37.631Z,62.43
2023-05-10T16:54:40.320Z,62.74
2023-05-10T16:59:42.698Z,62.72
2023-05-10T17:04:44.906Z,62.69
2023-05-10T17:09:47.417Z,62.62
2023-05-10T17:14:49.647Z,62.88
2023-05-10T17:19:52.000Z,62.55
2023-05-10T17:24:54.481Z,62.59
2023-05-10T17:29:57.967Z,62.57
2023-05-10T17:35:00.339Z,62.34
2023-05-10T17:40:04.243Z,61.95
2023-05-10T17:45:06.989Z,61.86
2023-05-10T17:50:10.568Z,61.90
2023-05-10T17:55:13.789Z,61.76
2023-05-10T18:00:16.693Z,61.57
2023-05-10T18:05:19.264Z,61.66
2023-05-10T18:10:21.801Z,61.81
2023-05-10T18:15:24.228Z,62.22
2023-05-10T18:20:26.478Z,61.72
2023-05-10T18:25:29.093Z,62.10
2023-05-10T18:30:31.415Z,62.05
2023-05-10T18:35:35.876Z,62.27
2023-05-10T18:40:38.156Z,61.95
2023-05-10T18:45:40.463Z,61.65
2023-05-10T18:50:42.725Z,61.48
2023-05-10T18:55:46.032Z,61.30
2023-05-10T19:00:49.099Z,61.26
2023-05-10T19:05:52.364Z,61.30
2023-05-10T19:10:54.566Z,61.41
2023-05-10T19:16:21.830Z,61.17
2023-05-10T19:21:25.509Z,61.25
2023-05-10T19:26:28.733Z,60.98
2023-05-10T19:31:31.424Z,60.97
2023-05-10T19:36:34.890Z,60.55
2023-05-10T19:41:37.358Z,60.74
2023-05-10T19:46:39.793Z,60.73
2023-05-10T19:51:42.072Z,60.66
2023-05-10T19:56:44.298Z,60.14
2023-05-10T20:01:46.769Z,60.50
2023-05-10T20:06:48.986Z,60.21
2023-05-10T20:11:51.324Z,60.28
2023-05-10T20:16:53.580Z,60.62
2023-05-10T20:21:59.146Z,60.57
2023-05-10T20:27:01.367Z,60.58
2023-05-10T20:32:03.685Z,60.68
2023-05-10T20:37:06.307Z,61.10
2023-05-10T20:42:09.601Z,60.75
2023-05-10T20:47:12.168Z,60.39
2023-05-10T20:52:14.530Z,60.25
2023-05-10T20:57:16.757Z,59.96
2023-05-10T21:02:19.085Z,59.95
2023-05-10T21:07:21.336Z,59.79
2023-05-10T21:12:23.586Z,59.59
2023-05-10T21:17:25.882Z,59.49
2023-05-10T21:22:28.586Z,59.36
2023-05-10T21:27:30.905Z,59.91
2023-05-10T21:32:33.911Z,60.20
2023-05-10T21:37:36.169Z,60.29
2023-05-10T21:42:38.399Z,60.72
2023-05-10T21:47:40.618Z,61.07
2023-05-10T21:52:42.809Z,61.42
2023-05-10T21:57:45.291Z,61.14
2023-05-10T22:02:47.784Z,61.47
2023-05-10T22:07:50.169Z,61.67
2023-05-10T22:12:52.547Z,62.02
2023-05-10T22:17:54.869Z,61.99
2023-05-10T22:22:57.265Z,62.35
2023-05-10T22:27:59.664Z,62.92
2023-05-10T22:33:02.352Z,63.10
2023-05-10T22:38:05.060Z,63.25
2023-05-10T22:43:07.436Z,63.38
2023-05-10T22:48:09.915Z,63.11
2023-05-10T22:53:12.160Z,63.19
2023-05-10T22:58:14.515Z,63.25
2023-05-10T23:03:17.020Z,63.05
2023-05-10T23:08:19.225Z,63.50
2023-05-10T23:13:22.145Z,63.31
2023-05-10T23:18:24.337Z,63.53
2023-05-10T23:23:26.631Z,63.30
2023-05-10T23:28:28.848Z,63.20
2023-05-10T23:33:31.044Z,63.10
2023-05-10T23:38:33.548Z,63.07
2023-05-10T23:43:35.780Z,63.39
2023-05-10T23:48:38.006Z,62.95
2023-05-10T23:53:40.280Z,62.77
2023-05-10T23:58:42.985Z,62.83
